sensor_id;sensor_type;location;lat;lon;timestamp;pressure;altitude;pressure_sealevel;temperature;humidity
73700;BME280;62005;50.082;8.988;2023-03-01T00:00:12;101665.38;;;0.74;64.78
73700;BME280;62005;50.082;8.988;2023-03-01T00:02:37;101664.53;;;0.73;65.05
73700;BME280;62005;50.082;8.988;2023-03-01T00:05:03;101662.00;;;0.72;65.33
73700;BME280;62005;50.082;8.988;2023-03-01T00:07:29;101664.53;;;0.73;65.70
73700;BME280;62005;50.082;8.988;2023-03-01T00:10:09;101613.06;;;0.43;65.73
73700;BME280;62005;50.082;8.988;2023-03-01T00:12:56;101663.94;;;0.70;65.89
73700;BME280;62005;50.082;8.988;2023-03-01T00:15:53;101684.22;;;0.82;65.76
73700;BME280;62005;50.082;8.988;2023-03-01T00:18:43;101631.88;;;0.51;65.71
73700;BME280;62005;50.082;8.988;2023-03-01T00:21:32;101603.16;;;0.34;66.07
73700;BME280;62005;50.082;8.988;2023-03-01T00:24:13;101603.16;;;0.34;65.61
73700;BME280;62005;50.082;8.988;2023-03-01T00:26:39;101680.56;;;0.83;66.63
73700;BME280;62005;50.082;8.988;2023-03-01T00:29:04;101669.91;;;0.83;65.83
73700;BME280;62005;50.082;8.988;2023-03-01T00:31:31;101668.25;;;0.82;65.89
73700;BME280;62005;50.082;8.988;2023-03-01T00:34:00;101657.72;;;0.80;65.72
73700;BME280;62005;50.082;8.988;2023-03-01T00:36:28;101636.38;;;0.71;65.77
73700;BME280;62005;50.082;8.988;2023-03-01T00:38:54;101647.81;;;0.82;66.06
73700;BME280;62005;50.082;8.988;2023-03-01T00:41:20;101642.63;;;0.81;66.72
73700;BME280;62005;50.082;8.988;2023-03-01T00:43:48;101643.31;;;0.83;66.58
73700;BME280;62005;50.082;8.988;2023-03-01T00:46:16;101645.00;;;0.84;66.42
73700;BME280;62005;50.082;8.988;2023-03-01T00:48:45;101643.06;;;0.86;67.34
73700;BME280;62005;50.082;8.988;2023-03-01T00:53:43;101648.41;;;0.86;67.04
73700;BME280;62005;50.082;8.988;2023-03-01T00:56:10;101641.38;;;0.85;66.54
73700;BME280;62005;50.082;8.988;2023-03-01T00:58:36;101649.81;;;0.90;66.37
73700;BME280;62005;50.082;8.988;2023-03-01T01:01:10;101643.06;;;0.86;66.06
73700;BME280;62005;50.082;8.988;2023-03-01T01:03:45;101641.97;;;0.88;66.40
73700;BME280;62005;50.082;8.988;2023-03-01T01:06:15;101655.13;;;0.90;66.85
73700;BME280;62005;50.082;8.988;2023-03-01T01:08:41;101637.75;;;0.86;66.64
73700;BME280;62005;50.082;8.988;2023-03-01T01:11:09;101640.00;;;0.90;66.70
73700;BME280;62005;50.082;8.988;2023-03-01T01:13:34;101634.81;;;0.89;66.42
73700;BME280;62005;50.082;8.988;2023-03-01T01:16:01;101611.63;;;0.80;66.30
73700;BME280;62005;50.082;8.988;2023-03-01T01:18:26;101618.41;;;0.84;66.72
73700;BME280;62005;50.082;8.988;2023-03-01T01:20:52;101597.63;;;0.78;66.66
73700;BME280;62005;50.082;8.988;2023-03-01T01:23:17;101618.84;;;0.89;66.29
73700;BME280;62005;50.082;8.988;2023-03-01T01:25:42;101603.03;;;0.87;66.50
73700;BME280;62005;50.082;8.988;2023-03-01T01:28:08;101583.63;;;0.76;66.50
73700;BME280;62005;50.082;8.988;2023-03-01T01:30:33;101594.59;;;0.82;66.60
73700;BME280;62005;50.082;8.988;2023-03-01T01:32:58;101593.59;;;0.83;66.07
73700;BME280;62005;50.082;8.988;2023-03-01T01:35:24;101586.47;;;0.84;66.29
73700;BME280;62005;50.082;8.988;2023-03-01T01:37:49;101568.47;;;0.76;66.85
73700;BME280;62005;50.082;8.988;2023-03-01T01:40:18;101581.41;;;0.81;66.14
73700;BME280;62005;50.082;8.988;2023-03-01T01:42:43;101579.72;;;0.80;66.21
73700;BME280;62005;50.082;8.988;2023-03-01T01:45:34;101588.16;;;0.85;65.96
73700;BME280;62005;50.082;8.988;2023-03-01T01:48:03;101581.66;;;0.78;65.88
73700;BME280;62005;50.082;8.988;2023-03-01T01:50:30;101592.28;;;0.78;66.03
73700;BME280;62005;50.082;8.988;2023-03-01T01:53:06;101595.66;;;0.80;66.37
73700;BME280;62005;50.082;8.988;2023-03-01T01:55:31;101594.25;;;0.76;66.44
73700;BME280;62005;50.082;8.988;2023-03-01T01:58:00;101586.78;;;0.70;66.55
73700;BME280;62005;50.082;8.988;2023-03-01T02:00:29;101604.63;;;0.79;66.54
73700;BME280;62005;50.082;8.988;2023-03-01T02:02:59;101603.91;;;0.77;66.51
73700;BME280;62005;50.082;8.988;2023-03-01T02:08:11;101596.47;;;0.71;66.89
73700;BME280;62005;50.082;8.988;2023-03-01T02:10:54;101548.63;;;0.39;66.63
73700;BME280;62005;50.082;8.988;2023-03-01T02:23:31;101592.56;;;0.75;66.43
73700;BME280;62005;50.082;8.988;2023-03-01T02:28:48;101545.00;;;0.40;67.33
73700;BME280;62005;50.082;8.988;2023-03-01T02:31:30;101577.84;;;0.71;66.62
73700;BME280;62005;50.082;8.988;2023-03-01T02:34:22;101560.25;;;0.59;66.45
73700;BME280;62005;50.082;8.988;2023-03-01T02:37:05;101515.41;;;0.34;66.60
73700;BME280;62005;50.082;8.988;2023-03-01T02:40:20;101507.16;;;0.37;66.35
73700;BME280;62005;50.082;8.988;2023-03-01T02:43:22;101524.31;;;0.44;66.51
73700;BME280;62005;50.082;8.988;2023-03-01T02:46:41;101520.66;;;0.45;66.64
73700;BME280;62005;50.082;8.988;2023-03-01T02:49:33;101566.94;;;0.74;66.81
73700;BME280;62005;50.082;8.988;2023-03-01T02:55:41;101558.94;;;0.74;66.83
73700;BME280;62005;50.082;8.988;2023-03-01T02:58:14;101543.25;;;0.71;66.41
73700;BME280;62005;50.082;8.988;2023-03-01T03:01:06;101497.72;;;0.44;66.33
73700;BME280;62005;50.082;8.988;2023-03-01T03:03:45;101539.59;;;0.72;67.17
73700;BME280;62005;50.082;8.988;2023-03-01T03:06:21;101529.22;;;0.69;67.00
73700;BME280;62005;50.082;8.988;2023-03-01T03:09:13;101460.09;;;0.28;66.59
73700;BME280;62005;50.082;8.988;2023-03-01T03:11:54;101456.16;;;0.22;66.49
73700;BME280;62005;50.082;8.988;2023-03-01T03:14:33;101459.13;;;0.29;67.10
73700;BME280;62005;50.082;8.988;2023-03-01T03:17:27;101491.03;;;0.49;66.52
73700;BME280;62005;50.082;8.988;2023-03-01T03:20:14;101508.72;;;0.60;66.93
73700;BME280;62005;50.082;8.988;2023-03-01T03:22:45;101517.75;;;0.68;66.39
73700;BME280;62005;50.082;8.988;2023-03-01T03:25:10;101515.22;;;0.67;67.11
73700;BME280;62005;50.082;8.988;2023-03-01T03:27:40;101514.94;;;0.70;66.83
73700;BME280;62005;50.082;8.988;2023-03-01T03:30:07;101509.63;;;0.70;67.02
73700;BME280;62005;50.082;8.988;2023-03-01T03:32:38;101514.94;;;0.70;66.57
73700;BME280;62005;50.082;8.988;2023-03-01T03:35:05;101503.59;;;0.68;66.67
73700;BME280;62005;50.082;8.988;2023-03-01T03:37:41;101508.81;;;0.69;67.00
73700;BME280;62005;50.082;8.988;2023-03-01T03:40:26;101509.63;;;0.70;66.86
73700;BME280;62005;50.082;8.988;2023-03-01T03:42:52;101487.72;;;0.57;66.90
73700;BME280;62005;50.082;8.988;2023-03-01T03:45:18;101500.69;;;0.71;67.12
73700;BME280;62005;50.082;8.988;2023-03-01T03:47:43;101501.19;;;0.65;67.12
73700;BME280;62005;50.082;8.988;2023-03-01T03:50:13;101494.47;;;0.61;66.83
73700;BME280;62005;50.082;8.988;2023-03-01T03:52:39;101489.41;;;0.58;67.06
73700;BME280;62005;50.082;8.988;2023-03-01T03:55:06;101496.41;;;0.59;66.68
73700;BME280;62005;50.082;8.988;2023-03-01T03:57:36;101501.19;;;0.65;66.54
73700;BME280;62005;50.082;8.988;2023-03-01T04:00:02;101504.56;;;0.67;67.70
73700;BME280;62005;50.082;8.988;2023-03-01T04:09:03;101429.50;;;0.13;67.06
73700;BME280;62005;50.082;8.988;2023-03-01T04:12:03;101456.72;;;0.26;67.29
73700;BME280;62005;50.082;8.988;2023-03-01T04:14:57;101470.94;;;0.36;67.65
73700;BME280;62005;50.082;8.988;2023-03-01T04:20:27;101512.38;;;0.59;67.80
73700;BME280;62005;50.082;8.988;2023-03-01T04:29:37;101416.28;;;0.02;67.54
73700;BME280;62005;50.082;8.988;2023-03-01T04:35:20;101419.41;;;0.07;67.70
73700;BME280;62005;50.082;8.988;2023-03-01T04:37:49;101426.66;;;0.05;67.94
73700;BME280;62005;50.082;8.988;2023-03-01T04:40:54;101406.16;;;-0.05;67.80
73700;BME280;62005;50.082;8.988;2023-03-01T04:43:49;101495.25;;;0.52;67.66
73700;BME280;62005;50.082;8.988;2023-03-01T04:47:02;101424.13;;;0.03;67.25
73700;BME280;62005;50.082;8.988;2023-03-01T04:49:40;101465.44;;;0.28;68.00
73700;BME280;62005;50.082;8.988;2023-03-01T04:52:06;101494.91;;;0.45;67.75
73700;BME280;62005;50.082;8.988;2023-03-01T04:54:33;101494.34;;;0.42;68.34
73700;BME280;62005;50.082;8.988;2023-03-01T04:56:58;101496.03;;;0.43;67.91
73700;BME280;62005;50.082;8.988;2023-03-01T04:59:26;101490.72;;;0.43;68.00
73700;BME280;62005;50.082;8.988;2023-03-01T05:01:53;101498.69;;;0.43;67.67
73700;BME280;62005;50.082;8.988;2023-03-01T05:04:21;101510.28;;;0.42;67.66
73700;BME280;62005;50.082;8.988;2023-03-01T05:06:47;101488.09;;;0.32;68.23
73700;BME280;62005;50.082;8.988;2023-03-01T05:09:12;101492.84;;;0.28;68.06
73700;BME280;62005;50.082;8.988;2023-03-01T05:11:38;101492.47;;;0.33;68.26
73700;BME280;62005;50.082;8.988;2023-03-01T05:14:03;101500.72;;;0.30;67.97
73700;BME280;62005;50.082;8.988;2023-03-01T05:16:29;101505.50;;;0.36;68.27
73700;BME280;62005;50.082;8.988;2023-03-01T05:18:55;101510.81;;;0.36;68.35
73700;BME280;62005;50.082;8.988;2023-03-01T05:21:22;101486.97;;;0.25;68.38
73700;BME280;62005;50.082;8.988;2023-03-01T05:23:47;101500.44;;;0.33;68.29
73700;BME280;62005;50.082;8.988;2023-03-01T05:26:13;101504.06;;;0.32;68.24
73700;BME280;62005;50.082;8.988;2023-03-01T05:28:39;101500.19;;;0.36;68.12
73700;BME280;62005;50.082;8.988;2023-03-01T05:31:05;101501.84;;;0.37;68.24
73700;BME280;62005;50.082;8.988;2023-03-01T05:33:40;101492.72;;;0.30;68.47
73700;BME280;62005;50.082;8.988;2023-03-01T05:36:07;101485.56;;;0.30;68.12
73700;BME280;62005;50.082;8.988;2023-03-01T05:38:33;101501.84;;;0.37;68.02
73700;BME280;62005;50.082;8.988;2023-03-01T05:40:59;101489.81;;;0.33;67.81
73700;BME280;62005;50.082;8.988;2023-03-01T05:43:24;101490.97;;;0.40;68.29
73700;BME280;62005;50.082;8.988;2023-03-01T05:45:50;101486.16;;;0.34;67.90
73700;BME280;62005;50.082;8.988;2023-03-01T05:48:16;101486.63;;;0.39;67.90
73700;BME280;62005;50.082;8.988;2023-03-01T05:50:44;101484.22;;;0.36;67.69
73700;BME280;62005;50.082;8.988;2023-03-01T05:53:10;101490.00;;;0.41;68.05
73700;BME280;62005;50.082;8.988;2023-03-01T05:55:36;101483.38;;;0.35;67.49
73700;BME280;62005;50.082;8.988;2023-03-01T05:58:19;101407.28;;;-0.07;67.37
73700;BME280;62005;50.082;8.988;2023-03-01T06:04:58;101487.47;;;0.39;67.99
73700;BME280;62005;50.082;8.988;2023-03-01T06:15:18;101458.94;;;0.21;68.55
73700;BME280;62005;50.082;8.988;2023-03-01T06:18:11;101404.47;;;-0.06;68.35
73700;BME280;62005;50.082;8.988;2023-03-01T06:21:05;101487.34;;;0.41;68.13
73700;BME280;62005;50.082;8.988;2023-03-01T06:27:06;101408.44;;;0.00;68.38
73700;BME280;62005;50.082;8.988;2023-03-01T06:33:14;101403.00;;;0.02;67.63
73700;BME280;62005;50.082;8.988;2023-03-01T06:35:54;101390.94;;;-0.03;68.39
73700;BME280;62005;50.082;8.988;2023-03-01T06:38:56;101391.38;;;0.03;67.91
73700;BME280;62005;50.082;8.988;2023-03-01T06:44:33;101466.16;;;0.60;68.44
73700;BME280;62005;50.082;8.988;2023-03-01T06:50:16;101461.72;;;0.70;67.78
73700;BME280;62005;50.082;8.988;2023-03-01T06:52:43;101451.81;;;0.72;67.98
73700;BME280;62005;50.082;8.988;2023-03-01T06:58:36;101411.28;;;0.59;67.16
73700;BME280;62005;50.082;8.988;2023-03-01T07:01:06;101451.91;;;0.91;67.10
73700;BME280;62005;50.082;8.988;2023-03-01T07:03:31;101464.81;;;1.05;67.31
73700;BME280;62005;50.082;8.988;2023-03-01T07:10:37;101425.59;;;1.07;67.18
73700;BME280;62005;50.082;8.988;2023-03-01T07:19:31;101392.44;;;1.30;66.31
73700;BME280;62005;50.082;8.988;2023-03-01T07:21:56;101436.22;;;1.75;66.06
73700;BME280;62005;50.082;8.988;2023-03-01T07:24:22;101455.03;;;1.93;65.70
73700;BME280;62005;50.082;8.988;2023-03-01T07:26:51;101453.06;;;2.04;65.15
73700;BME280;62005;50.082;8.988;2023-03-01T07:29:17;101460.59;;;2.18;65.45
73700;BME280;62005;50.082;8.988;2023-03-01T07:31:43;101456.38;;;2.25;64.82
73700;BME280;62005;50.082;8.988;2023-03-01T07:34:08;101469.00;;;2.42;64.39
73700;BME280;62005;50.082;8.988;2023-03-01T07:36:33;101454.78;;;2.51;64.97
73700;BME280;62005;50.082;8.988;2023-03-01T07:38:59;101435.53;;;2.57;64.46
73700;BME280;62005;50.082;8.988;2023-03-01T07:41:27;101413.91;;;2.60;63.90
73700;BME280;62005;50.082;8.988;2023-03-01T07:43:52;101429.41;;;2.84;63.15
73700;BME280;62005;50.082;8.988;2023-03-01T07:46:18;101437.47;;;3.02;62.82
73700;BME280;62005;50.082;8.988;2023-03-01T07:51:19;101420.34;;;3.22;62.78
73700;BME280;62005;50.082;8.988;2023-03-01T07:53:47;101435.28;;;3.42;62.02
73700;BME280;62005;50.082;8.988;2023-03-01T07:56:14;101431.38;;;3.54;61.40
73700;BME280;62005;50.082;8.988;2023-03-01T07:58:42;101422.47;;;3.63;61.21
73700;BME280;62005;50.082;8.988;2023-03-01T08:01:10;101431.25;;;3.73;61.10
73700;BME280;62005;50.082;8.988;2023-03-01T08:03:36;101426.66;;;3.83;60.60
73700;BME280;62005;50.082;8.988;2023-03-01T08:06:03;101422.97;;;3.84;60.78
73700;BME280;62005;50.082;8.988;2023-03-01T08:08:29;101425.28;;;3.96;59.92
73700;BME280;62005;50.082;8.988;2023-03-01T08:10:58;101418.84;;;4.07;60.29
73700;BME280;62005;50.082;8.988;2023-03-01T08:13:24;101421.56;;;4.15;59.22
73700;BME280;62005;50.082;8.988;2023-03-01T08:15:49;101415.94;;;4.18;59.15
73700;BME280;62005;50.082;8.988;2023-03-01T08:18:16;101412.28;;;4.27;58.92
73700;BME280;62005;50.082;8.988;2023-03-01T08:20:42;101415.19;;;4.34;59.47
73700;BME280;62005;50.082;8.988;2023-03-01T08:23:07;101402.69;;;4.42;58.46
73700;BME280;62005;50.082;8.988;2023-03-01T08:25:32;101410.78;;;4.50;58.72
73700;BME280;62005;50.082;8.988;2023-03-01T08:38:52;101338.47;;;4.42;57.54
73700;BME280;62005;50.082;8.988;2023-03-01T08:52:06;101378.22;;;5.04;55.56
73700;BME280;62005;50.082;8.988;2023-03-01T08:54:31;101384.09;;;5.08;55.84
73700;BME280;62005;50.082;8.988;2023-03-01T08:56:57;101374.59;;;5.21;55.79
73700;BME280;62005;50.082;8.988;2023-03-01T09:03:25;101308.38;;;4.98;55.92
73700;BME280;62005;50.082;8.988;2023-03-01T09:16:18;101276.47;;;5.37;54.18
73700;BME280;62005;50.082;8.988;2023-03-01T09:21:55;101358.25;;;5.97;52.39
73700;BME280;62005;50.082;8.988;2023-03-01T09:24:23;101347.56;;;6.05;52.81
73700;BME280;62005;50.082;8.988;2023-03-01T09:26:48;101342.19;;;6.05;52.92
73700;BME280;62005;50.082;8.988;2023-03-01T09:29:15;101353.22;;;6.18;51.84
73700;BME280;62005;50.082;8.988;2023-03-01T09:31:41;101337.44;;;6.15;52.51
73700;BME280;62005;50.082;8.988;2023-03-01T09:34:07;101342.13;;;6.29;51.25
73700;BME280;62005;50.082;8.988;2023-03-01T09:36:33;101340.44;;;6.36;52.01
73700;BME280;62005;50.082;8.988;2023-03-01T09:38:59;101321.97;;;6.41;51.77
73700;BME280;62005;50.082;8.988;2023-03-01T09:41:57;101320.06;;;6.49;52.09
73700;BME280;62005;50.082;8.988;2023-03-01T09:44:39;101328.63;;;6.61;50.34
73700;BME280;62005;50.082;8.988;2023-03-01T09:47:26;101315.47;;;6.66;51.03
73700;BME280;62005;50.082;8.988;2023-03-01T09:50:26;101307.41;;;6.74;50.88
73700;BME280;62005;50.082;8.988;2023-03-01T09:53:05;101312.44;;;6.77;49.33
73700;BME280;62005;50.082;8.988;2023-03-01T09:55:38;101317.72;;;6.93;51.15
73700;BME280;62005;50.082;8.988;2023-03-01T10:10:55;101258.22;;;6.96;49.19
73700;BME280;62005;50.082;8.988;2023-03-01T10:13:58;101291.56;;;7.32;48.42
73700;BME280;62005;50.082;8.988;2023-03-01T10:32:01;101215.31;;;7.48;48.51
73700;BME280;62005;50.082;8.988;2023-03-01T10:37:42;101281.19;;;8.04;47.09
73700;BME280;62005;50.082;8.988;2023-03-01T10:48:10;101221.97;;;8.04;47.51
73700;BME280;62005;50.082;8.988;2023-03-01T10:50:37;101250.31;;;8.29;46.26
73700;BME280;62005;50.082;8.988;2023-03-01T10:53:05;101252.63;;;8.32;45.85
73700;BME280;62005;50.082;8.988;2023-03-01T10:55:41;101245.59;;;8.31;45.48
73700;BME280;62005;50.082;8.988;2023-03-01T10:58:21;101229.44;;;8.31;44.94
73700;BME280;62005;50.082;8.988;2023-03-01T11:00:53;101235.00;;;8.44;45.75
73700;BME280;62005;50.082;8.988;2023-03-01T11:03:27;101225.88;;;8.45;45.56
73700;BME280;62005;50.082;8.988;2023-03-01T11:06:12;101225.13;;;8.51;47.13
73700;BME280;62005;50.082;8.988;2023-03-01T11:08:47;101215.00;;;8.53;45.95
73700;BME280;62005;50.082;8.988;2023-03-01T11:11:16;101223.59;;;8.63;46.40
73700;BME280;62005;50.082;8.988;2023-03-01T11:13:56;101211.38;;;8.60;46.69
73700;BME280;62005;50.082;8.988;2023-03-01T11:16:41;101157.38;;;8.33;44.75
73700;BME280;62005;50.082;8.988;2023-03-01T11:19:22;101200.47;;;8.68;44.81
73700;BME280;62005;50.082;8.988;2023-03-01T11:22:12;101220.19;;;8.90;44.06
73700;BME280;62005;50.082;8.988;2023-03-01T11:25:21;101209.41;;;8.90;44.16
73700;BME280;62005;50.082;8.988;2023-03-01T11:28:07;101159.47;;;8.73;44.47
73700;BME280;62005;50.082;8.988;2023-03-01T11:31:15;101186.66;;;8.92;43.82
73700;BME280;62005;50.082;8.988;2023-03-01T11:37:12;101132.00;;;8.84;44.38
73700;BME280;62005;50.082;8.988;2023-03-01T11:40:29;101187.34;;;9.22;42.91
73700;BME280;62005;50.082;8.988;2023-03-01T12:00:44;101167.19;;;9.46;41.45
73700;BME280;62005;50.082;8.988;2023-03-01T12:12:18;101140.72;;;9.62;43.29
73700;BME280;62005;50.082;8.988;2023-03-01T12:15:04;101143.66;;;9.67;44.13
73700;BME280;62005;50.082;8.988;2023-03-01T12:17:56;101139.56;;;9.71;43.75
73700;BME280;62005;50.082;8.988;2023-03-01T12:29:09;101045.06;;;9.37;40.75
73700;BME280;62005;50.082;8.988;2023-03-01T12:40:32;101090.63;;;9.87;40.27
73700;BME280;62005;50.082;8.988;2023-03-01T12:43:21;101064.44;;;9.81;40.48
73700;BME280;62005;50.082;8.988;2023-03-01T12:45:54;101056.16;;;9.89;40.64
73700;BME280;62005;50.082;8.988;2023-03-01T12:48:30;101078.22;;;9.99;40.66
73700;BME280;62005;50.082;8.988;2023-03-01T12:51:02;101065.72;;;9.98;39.95
73700;BME280;62005;50.082;8.988;2023-03-01T12:53:32;101068.66;;;10.03;40.36
73700;BME280;62005;50.082;8.988;2023-03-01T12:56:05;101036.22;;;9.90;39.08
73700;BME280;62005;50.082;8.988;2023-03-01T12:59:08;101060.63;;;10.10;40.37
73700;BME280;62005;50.082;8.988;2023-03-01T13:07:16;101047.53;;;10.13;39.30
73700;BME280;62005;50.082;8.988;2023-03-01T13:13:01;101047.94;;;10.10;38.83
73700;BME280;62005;50.082;8.988;2023-03-01T13:15:38;101021.31;;;10.01;38.98
73700;BME280;62005;50.082;8.988;2023-03-01T13:26:12;101028.78;;;10.05;38.74
73700;BME280;62005;50.082;8.988;2023-03-01T13:28:50;100978.44;;;9.78;38.97
73700;BME280;62005;50.082;8.988;2023-03-01T13:33:57;100966.38;;;9.74;38.67
73700;BME280;62005;50.082;8.988;2023-03-01T13:46:54;100962.66;;;9.88;42.40
73700;BME280;62005;50.082;8.988;2023-03-01T13:49:29;100945.22;;;9.84;41.73
73700;BME280;62005;50.082;8.988;2023-03-01T13:51:59;100970.19;;;9.99;42.76
73700;BME280;62005;50.082;8.988;2023-03-01T13:54:32;100986.47;;;10.12;42.46
73700;BME280;62005;50.082;8.988;2023-03-01T13:56:59;100965.00;;;9.98;43.02
73700;BME280;62005;50.082;8.988;2023-03-01T13:59:25;100982.66;;;10.07;42.80
73700;BME280;62005;50.082;8.988;2023-03-01T14:01:53;101005.59;;;10.17;42.98
73700;BME280;62005;50.082;8.988;2023-03-01T14:06:48;100959.78;;;9.90;42.90
73700;BME280;62005;50.082;8.988;2023-03-01T14:09:21;100969.97;;;9.94;42.95
73700;BME280;62005;50.082;8.988;2023-03-01T14:14:48;100991.81;;;9.99;43.65
73700;BME280;62005;50.082;8.988;2023-03-01T14:20:01;101000.88;;;9.85;43.27
73700;BME280;62005;50.082;8.988;2023-03-01T14:22:32;100978.78;;;9.62;42.89
73700;BME280;62005;50.082;8.988;2023-03-01T14:28:36;100960.25;;;9.46;44.27
73700;BME280;62005;50.082;8.988;2023-03-01T14:30:43;100966.28;;;9.48;43.80
73700;BME280;62005;50.082;8.988;2023-03-01T14:33:28;100988.91;;;9.54;44.02
73700;BME280;62005;50.082;8.988;2023-03-01T14:36:09;100930.63;;;9.12;44.08
73700;BME280;62005;50.082;8.988;2023-03-01T14:38:44;100916.66;;;9.02;43.59
73700;BME280;62005;50.082;8.988;2023-03-01T14:41:14;100964.47;;;9.21;44.70
73700;BME280;62005;50.082;8.988;2023-03-01T14:43:44;100941.56;;;9.04;45.07
73700;BME280;62005;50.082;8.988;2023-03-01T14:46:22;100904.53;;;8.85;45.15
73700;BME280;62005;50.082;8.988;2023-03-01T14:48:54;100956.94;;;9.10;43.96
73700;BME280;62005;50.082;8.988;2023-03-01T14:51:20;100957.75;;;9.04;45.19
73700;BME280;62005;50.082;8.988;2023-03-01T14:53:46;100963.22;;;9.17;44.82
73700;BME280;62005;50.082;8.988;2023-03-01T14:56:13;100958.19;;;9.14;44.73
73700;BME280;62005;50.082;8.988;2023-03-01T14:58:39;100963.16;;;9.04;44.03
73700;BME280;62005;50.082;8.988;2023-03-01T15:01:04;100954.38;;;8.95;44.58
73700;BME280;62005;50.082;8.988;2023-03-01T15:03:34;100969.31;;;8.98;44.58
73700;BME280;62005;50.082;8.988;2023-03-01T15:06:03;100965.38;;;8.94;44.88
73700;BME280;62005;50.082;8.988;2023-03-01T15:08:41;100923.06;;;8.67;44.32
73700;BME280;62005;50.082;8.988;2023-03-01T15:13:38;100894.13;;;8.48;45.82
73700;BME280;62005;50.082;8.988;2023-03-01T15:16:07;100957.81;;;8.83;45.46
73700;BME280;62005;50.082;8.988;2023-03-01T15:18:35;100921.69;;;8.50;45.28
73700;BME280;62005;50.082;8.988;2023-03-01T15:23:41;100947.69;;;8.57;44.71
73700;BME280;62005;50.082;8.988;2023-03-01T15:26:06;100961.59;;;8.61;45.46
73700;BME280;62005;50.082;8.988;2023-03-01T15:28:49;100964.03;;;8.56;45.43
73700;BME280;62005;50.082;8.988;2023-03-01T15:33:46;100977.88;;;8.53;45.50
73700;BME280;62005;50.082;8.988;2023-03-01T15:38:56;100984.06;;;8.47;45.96
73700;BME280;62005;50.082;8.988;2023-03-01T15:43:57;100987.53;;;8.41;46.61
73700;BME280;62005;50.082;8.988;2023-03-01T15:46:26;100991.22;;;8.40;46.51
73700;BME280;62005;50.082;8.988;2023-03-01T15:48:59;100939.94;;;8.06;46.67
73700;BME280;62005;50.082;8.988;2023-03-01T15:54:01;100937.88;;;7.86;47.24
73700;BME280;62005;50.082;8.988;2023-03-01T15:56:28;100943.13;;;7.94;45.78
73700;BME280;62005;50.082;8.988;2023-03-01T15:58:58;100924.25;;;7.73;47.00
73700;BME280;62005;50.082;8.988;2023-03-01T16:01:23;100950.03;;;7.82;46.97
73700;BME280;62005;50.082;8.988;2023-03-01T16:03:49;100940.06;;;7.76;47.68
73700;BME280;62005;50.082;8.988;2023-03-01T16:06:14;101004.53;;;8.06;47.13
73700;BME280;62005;50.082;8.988;2023-03-01T16:08:40;100956.81;;;7.78;46.72
73700;BME280;62005;50.082;8.988;2023-03-01T16:11:19;100930.25;;;7.54;46.65
73700;BME280;62005;50.082;8.988;2023-03-01T16:13:51;100980.22;;;7.78;47.27
73700;BME280;62005;50.082;8.988;2023-03-01T16:16:17;100982.19;;;7.69;47.76
73700;BME280;62005;50.082;8.988;2023-03-01T16:18:48;100959.19;;;7.52;47.77
73700;BME280;62005;50.082;8.988;2023-03-01T16:21:23;100942.81;;;7.33;47.76
73700;BME280;62005;50.082;8.988;2023-03-01T16:23:50;100945.72;;;7.31;47.21
73700;BME280;62005;50.082;8.988;2023-03-01T16:26:16;100992.78;;;7.56;47.43
73700;BME280;62005;50.082;8.988;2023-03-01T16:28:45;100960.19;;;7.30;48.08
73700;BME280;62005;50.082;8.988;2023-03-01T16:31:21;100950.53;;;7.21;47.53
73700;BME280;62005;50.082;8.988;2023-03-01T16:33:47;100995.84;;;7.39;47.30
73700;BME280;62005;50.082;8.988;2023-03-01T16:36:19;100984.00;;;7.33;47.93
73700;BME280;62005;50.082;8.988;2023-03-01T16:38:49;101016.25;;;7.48;48.54
73700;BME280;62005;50.082;8.988;2023-03-01T16:41:16;100953.16;;;7.00;48.08
73700;BME280;62005;50.082;8.988;2023-03-01T16:43:48;101017.56;;;7.37;48.50
73700;BME280;62005;50.082;8.988;2023-03-01T16:46:20;100990.22;;;7.19;48.23
73700;BME280;62005;50.082;8.988;2023-03-01T16:48:47;100997.91;;;7.22;48.69
73700;BME280;62005;50.082;8.988;2023-03-01T16:51:15;101022.66;;;7.32;48.65
73700;BME280;62005;50.082;8.988;2023-03-01T16:53:41;101025.44;;;7.24;48.78
73700;BME280;62005;50.082;8.988;2023-03-01T16:56:09;101000.06;;;7.12;48.22
73700;BME280;62005;50.082;8.988;2023-03-01T16:58:38;100992.44;;;7.01;48.63
73700;BME280;62005;50.082;8.988;2023-03-01T17:01:07;101013.84;;;7.09;48.96
73700;BME280;62005;50.082;8.988;2023-03-01T17:03:33;101008.19;;;7.04;48.96
73700;BME280;62005;50.082;8.988;2023-03-01T17:06:02;101000.88;;;6.98;48.85
73700;BME280;62005;50.082;8.988;2023-03-01T17:08:28;101022.47;;;7.05;49.07
73700;BME280;62005;50.082;8.988;2023-03-01T17:10:53;101004.31;;;6.92;49.50
73700;BME280;62005;50.082;8.988;2023-03-01T17:13:22;100998.72;;;6.79;49.52
73700;BME280;62005;50.082;8.988;2023-03-01T17:15:50;100948.66;;;6.49;49.49
73700;BME280;62005;50.082;8.988;2023-03-01T17:18:18;100940.66;;;6.41;49.54
73700;BME280;62005;50.082;8.988;2023-03-01T17:20:44;100982.13;;;6.61;49.68
73700;BME280;62005;50.082;8.988;2023-03-01T17:23:09;101025.88;;;6.84;49.35
73700;BME280;62005;50.082;8.988;2023-03-01T17:25:34;101006.72;;;6.64;49.17
73700;BME280;62005;50.082;8.988;2023-03-01T17:28:00;100975.28;;;6.36;49.65
73700;BME280;62005;50.082;8.988;2023-03-01T17:30:30;100963.59;;;6.29;49.51
73700;BME280;62005;50.082;8.988;2023-03-01T17:32:59;101007.63;;;6.42;49.78
73700;BME280;62005;50.082;8.988;2023-03-01T17:35:27;100993.41;;;6.34;49.90
73700;BME280;62005;50.082;8.988;2023-03-01T17:37:53;100956.56;;;6.05;49.74
73700;BME280;62005;50.082;8.988;2023-03-01T17:40:18;101038.75;;;6.51;50.04
73700;BME280;62005;50.082;8.988;2023-03-01T17:42:46;100987.69;;;6.14;50.44
73700;BME280;62005;50.082;8.988;2023-03-01T17:45:12;101000.56;;;6.19;49.74
73700;BME280;62005;50.082;8.988;2023-03-01T17:47:40;100992.94;;;6.08;50.28
73700;BME280;62005;50.082;8.988;2023-03-01T17:50:05;101042.78;;;6.33;50.01
73700;BME280;62005;50.082;8.988;2023-03-01T17:52:32;101042.09;;;6.31;50.61